Time;durP1;ratioP1;P1;durP2;ratioP2;P2;SDS_P1;SDS_P2;PMS_P1;PMS_P2;Temp;Humidity;BMP_temperature;BMP_pressure;BME280_temperature;BME280_humidity;BME280_pressure;Samples;Min_cycle;Max_cycle;Signal;HPM_P1;HPM_P2
2022/11/13 00:01:20;;;;;;;17.88;13.10;;;;;;;5.58;100.00;102501.31;5252939;28;20029;-66
2022/11/13 00:03:51;;;;;;;15.65;12.23;;;;;;;5.70;100.00;102506.25;5251926;28;20061;-65
2022/11/13 00:06:22;;;;;;;16.73;12.77;;;;;;;5.69;100.00;102502.75;5255395;28;20103;-65
2022/11/13 00:08:54;;;;;;;18.10;13.13;;;;;;;5.71;100.00;102500.03;5255178;28;20498;-65
2022/11/13 00:11:26;;;;;;;22.35;13.23;;;;;;;5.65;100.00;102495.78;5252955;28;20025;-65
2022/11/13 00:13:57;;;;;;;15.93;12.05;;;;;;;5.60;100.00;102491.53;5254964;28;20036;-66
2022/11/13 00:16:28;;;;;;;16.08;12.20;;;;;;;5.69;100.00;102491.25;5255503;28;20600;-65
2022/11/13 00:18:59;;;;;;;15.40;11.70;;;;;;;5.65;100.00;102479.88;5253624;28;20082;-65
2022/11/13 00:21:32;;;;;;;16.83;12.13;;;;;;;5.63;100.00;102487.00;5252329;28;20164;-65
2022/11/13 00:24:03;;;;;;;14.98;11.70;;;;;;;5.57;100.00;102489.00;5253975;28;20040;-65
2022/11/13 00:26:34;;;;;;;15.45;13.00;;;;;;;5.57;100.00;102481.91;5253590;28;20045;-65
2022/11/13 00:29:05;;;;;;;16.23;12.30;;;;;;;5.55;100.00;102485.53;5253508;28;20471;-65
2022/11/13 00:31:37;;;;;;;15.50;11.57;;;;;;;5.51;100.00;102487.38;5247524;28;20459;-65
2022/11/13 00:34:09;;;;;;;14.00;11.10;;;;;;;5.55;100.00;102481.09;5251558;28;20032;-65
2022/11/13 00:36:40;;;;;;;17.15;12.73;;;;;;;5.55;100.00;102486.38;5249218;28;20418;-65
2022/11/13 00:39:12;;;;;;;14.10;10.93;;;;;;;5.46;100.00;102482.22;5251566;28;20029;-65
2022/11/13 00:41:43;;;;;;;17.88;12.35;;;;;;;5.41;100.00;102467.41;5251121;28;20132;-66
2022/11/13 00:44:14;;;;;;;17.92;12.07;;;;;;;5.39;100.00;102469.19;5253829;28;20083;-66
2022/11/13 00:46:45;;;;;;;16.83;12.38;;;;;;;5.32;100.00;102472.94;5250833;28;20471;-65
2022/11/13 00:49:17;;;;;;;16.35;12.57;;;;;;;5.35;100.00;102467.53;5252014;28;20033;-66
2022/11/13 00:51:48;;;;;;;14.65;11.63;;;;;;;5.32;100.00;102460.56;5254694;28;20471;-65
2022/11/13 00:54:19;;;;;;;14.07;11.18;;;;;;;5.33;100.00;102459.69;5250988;28;20531;-66
2022/11/13 00:56:51;;;;;;;15.50;12.02;;;;;;;5.20;100.00;102453.00;5253855;28;20073;-66
2022/11/13 00:59:22;;;;;;;14.43;11.15;;;;;;;5.25;100.00;102461.66;5235401;28;20037;-66
2022/11/13 01:01:53;;;;;;;13.82;11.10;;;;;;;5.22;100.00;102452.03;5252465;28;20029;-66
2022/11/13 01:04:27;;;;;;;13.65;10.95;;;;;;;5.15;100.00;102450.47;5252194;28;20110;-66
2022/11/13 01:06:58;;;;;;;16.67;11.30;;;;;;;5.20;100.00;102455.63;5254509;28;20467;-65
2022/11/13 01:09:29;;;;;;;14.70;11.02;;;;;;;5.13;100.00;102451.41;5252264;28;20037;-66
2022/11/13 01:12:00;;;;;;;14.48;11.52;;;;;;;5.07;100.00;102452.47;5250700;28;20036;-65
2022/11/13 01:14:32;;;;;;;13.40;10.80;;;;;;;5.05;100.00;102451.63;5247613;28;21444;-65
2022/11/13 01:17:03;;;;;;;14.35;11.13;;;;;;;5.01;100.00;102447.34;5251523;28;20443;-65
2022/11/13 01:19:34;;;;;;;18.88;12.02;;;;;;;4.98;100.00;102450.06;5248596;28;20395;-65
2022/11/13 01:22:05;;;;;;;13.38;10.63;;;;;;;4.95;100.00;102448.38;5244622;28;20030;-65
2022/11/13 01:24:37;;;;;;;15.00;11.05;;;;;;;5.03;100.00;102445.53;5246892;28;20043;-65
2022/11/13 01:27:08;;;;;;;14.07;10.93;;;;;;;5.01;100.00;102445.56;5252996;28;20041;-65
2022/11/13 01:29:39;;;;;;;15.82;11.45;;;;;;;4.94;100.00;102445.75;5249854;28;20036;-65
2022/11/13 01:32:11;;;;;;;14.02;10.57;;;;;;;4.98;100.00;102442.97;5252336;28;20025;-65
2022/11/13 01:34:42;;;;;;;14.43;10.60;;;;;;;4.99;100.00;102446.53;5249586;28;20425;-65
2022/11/13 01:37:13;;;;;;;14.00;10.48;;;;;;;4.97;100.00;102440.41;5253736;28;20090;-65
2022/11/13 01:39:44;;;;;;;14.82;10.82;;;;;;;4.99;100.00;102439.44;5248783;28;20032;-65
2022/11/13 01:42:16;;;;;;;15.48;11.25;;;;;;;4.89;100.00;102446.75;5249297;28;20491;-65
2022/11/13 01:44:54;;;;;;;14.27;10.98;;;;;;;5.00;100.00;102448.25;5251104;28;20612;-65
2022/11/13 01:47:26;;;;;;;16.73;11.13;;;;;;;4.95;100.00;102442.19;5252911;28;20072;-65
2022/11/13 01:50:01;;;;;;;14.75;10.82;;;;;;;4.85;100.00;102434.53;5250782;28;20505;-65
2022/11/13 01:52:39;;;;;;;14.98;10.25;;;;;;;4.95;100.00;102431.63;5250848;28;20055;-65
2022/11/13 01:55:14;;;;;;;11.60;9.70;;;;;;;4.93;100.00;102433.44;5247826;28;20045;-65
2022/11/13 01:57:46;;;;;;;15.05;11.05;;;;;;;4.82;100.00;102428.47;5249776;28;20028;-66
2022/11/13 02:00:17;;;;;;;13.93;10.38;;;;;;;4.77;100.00;102417.13;5249383;28;20053;-66
2022/11/13 02:02:48;;;;;;;15.00;10.55;;;;;;;4.81;100.00;102414.34;5249686;28;20013;-65
2022/11/13 02:05:20;;;;;;;12.88;10.32;;;;;;;4.76;100.00;102405.69;5249369;28;20033;-65
2022/11/13 02:07:51;;;;;;;13.05;9.52;;;;;;;4.77;100.00;102401.25;5247803;28;20033;-65
2022/11/13 02:10:22;;;;;;;14.00;10.45;;;;;;;4.72;100.00;102404.03;5247454;28;20028;-65
2022/11/13 02:12:54;;;;;;;12.88;9.60;;;;;;;4.78;100.00;102409.16;5248795;28;20075;-65
2022/11/13 02:15:27;;;;;;;14.95;10.85;;;;;;;4.66;100.00;102399.78;5246561;28;20032;-65
2022/11/13 02:18:00;;;;;;;14.93;10.90;;;;;;;4.70;100.00;102406.72;5250354;28;20036;-65
2022/11/13 02:21:04;;;;;;;12.80;9.98;;;;;;;4.76;100.00;102391.59;5248122;28;20494;-65
2022/11/13 02:24:21;;;;;;;14.02;10.60;;;;;;;4.80;100.00;102391.47;5247819;28;20650;-65
2022/11/13 02:26:55;;;;;;;13.00;10.02;;;;;;;4.68;100.00;102387.38;5209718;28;20087;-65
2022/11/13 02:29:26;;;;;;;;;;;;;;;4.80;100.00;102387.97;5242623;28;20029;-65
2022/11/13 02:31:58;;;;;;;16.02;10.57;;;;;;;4.88;100.00;102378.03;5246423;28;19923;-65
2022/11/13 02:34:29;;;;;;;15.70;10.93;;;;;;;4.93;100.00;102380.53;5242705;28;20032;-65
2022/11/13 02:37:00;;;;;;;14.63;10.98;;;;;;;4.83;100.00;102382.56;5248243;28;20062;-65
2022/11/13 02:39:32;;;;;;;16.75;11.70;;;;;;;4.90;100.00;102378.84;5248498;28;20036;-65
2022/11/13 02:42:03;;;;;;;13.75;10.85;;;;;;;4.86;100.00;102374.56;5247821;28;20033;-65
2022/11/13 02:44:34;;;;;;;15.93;11.50;;;;;;;4.83;100.00;102374.63;5243692;28;20052;-65
2022/11/13 02:47:06;;;;;;;13.50;10.60;;;;;;;4.86;100.00;102377.22;5247244;28;20642;-65
2022/11/13 02:49:37;;;;;;;16.13;10.30;;;;;;;4.90;100.00;102373.56;5248448;28;20739;-65
2022/11/13 02:52:08;;;;;;;14.82;11.32;;;;;;;4.95;100.00;102374.31;5246678;28;20114;-65
2022/11/13 02:54:39;;;;;;;14.55;10.95;;;;;;;5.00;100.00;102368.88;5248154;28;20853;-65
2022/11/13 02:57:11;;;;;;;14.77;10.90;;;;;;;4.94;100.00;102363.78;5249625;28;20029;-65
2022/11/13 02:59:42;;;;;;;13.23;10.70;;;;;;;4.99;100.00;102359.22;5248412;28;20051;-65
2022/11/13 03:02:14;;;;;;;15.05;10.70;;;;;;;4.94;100.00;102363.78;5247590;28;20039;-65
2022/11/13 03:04:45;;;;;;;14.70;10.82;;;;;;;4.91;100.00;102368.25;5247643;28;20368;-65
2022/11/13 03:07:16;;;;;;;13.65;10.82;;;;;;;4.95;100.00;102371.66;5248271;28;20463;-65
2022/11/13 03:09:47;;;;;;;16.38;10.43;;;;;;;4.89;100.00;102358.63;5245186;28;20032;-66
2022/11/13 03:12:19;;;;;;;15.85;10.68;;;;;;;4.93;100.00;102362.03;5253450;28;20032;-65
2022/11/13 03:14:50;;;;;;;12.25;10.20;;;;;;;4.96;100.00;102354.00;5246451;28;20028;-65
2022/11/13 03:17:21;;;;;;;13.60;10.23;;;;;;;4.83;100.00;102343.81;5244880;28;20072;-65
2022/11/13 03:19:52;;;;;;;14.95;10.50;;;;;;;4.91;100.00;102349.72;5247139;28;20036;-65
2022/11/13 03:22:24;;;;;;;14.57;11.02;;;;;;;4.84;100.00;102334.94;5248280;28;20074;-65
2022/11/13 03:24:56;;;;;;;13.48;9.73;;;;;;;4.91;100.00;102340.94;5245982;28;20032;-65
2022/11/13 03:27:29;;;;;;;15.35;10.35;;;;;;;4.89;100.00;102337.47;5250743;28;20029;-65
2022/11/13 03:30:00;;;;;;;12.85;10.35;;;;;;;4.83;100.00;102340.25;5246005;28;20661;-65
2022/11/13 03:32:32;;;;;;;11.85;9.45;;;;;;;4.85;100.00;102336.69;5246048;28;20039;-65
2022/11/13 03:35:03;;;;;;;12.90;9.60;;;;;;;4.85;100.00;102341.97;5244066;28;20460;-65
2022/11/13 03:37:35;;;;;;;13.45;9.43;;;;;;;4.77;100.00;102343.09;5253594;28;20040;-65
2022/11/13 03:40:07;;;;;;;13.57;9.85;;;;;;;4.84;100.00;102334.09;5250688;28;20033;-65
2022/11/13 03:42:38;;;;;;;15.40;10.27;;;;;;;4.85;100.00;102331.41;5243237;28;20025;-65
2022/11/13 03:45:09;;;;;;;11.93;9.82;;;;;;;4.86;100.00;102333.13;5246714;28;20065;-65
2022/11/13 03:47:40;;;;;;;15.55;10.02;;;;;;;4.78;100.00;102313.97;5247556;28;20039;-65
2022/11/13 03:50:12;;;;;;;13.00;10.20;;;;;;;4.94;100.00;102322.31;5245489;28;20486;-65
2022/11/13 03:52:43;;;;;;;14.10;10.23;;;;;;;4.90;100.00;102324.19;5247287;28;20041;-65
2022/11/13 03:55:14;;;;;;;16.27;10.32;;;;;;;4.88;100.00;102320.72;5244317;28;20064;-65
2022/11/13 03:57:46;;;;;;;13.95;10.35;;;;;;;4.95;100.00;102316.13;5242583;28;20120;-65
2022/11/13 04:00:17;;;;;;;13.05;10.07;;;;;;;5.02;100.00;102316.81;5246300;28;20025;-65
2022/11/13 04:02:49;;;;;;;14.13;10.25;;;;;;;5.03;100.00;102305.31;5247033;28;21060;-65
2022/11/13 04:05:21;;;;;;;15.65;11.40;;;;;;;5.07;100.00;102302.53;5247618;28;20040;-65
2022/11/13 04:07:52;;;;;;;14.38;10.50;;;;;;;5.13;100.00;102300.63;5247422;28;20120;-65
2022/11/13 04:10:24;;;;;;;14.60;10.98;;;;;;;5.14;100.00;102295.28;5243745;28;20043;-65
2022/11/13 04:12:56;;;;;;;17.40;10.88;;;;;;;5.24;100.00;102299.38;5247893;28;20190;-65
2022/11/13 04:15:27;;;;;;;13.73;10.40;;;;;;;5.19;100.00;102298.63;5245801;28;20033;-65
2022/11/13 04:17:58;;;;;;;14.25;10.90;;;;;;;5.20;100.00;102300.38;5243605;28;20029;-65
2022/11/13 04:20:30;;;;;;;12.52;9.38;;;;;;;5.28;100.00;102294.84;5247879;28;20115;-65
2022/11/13 04:23:06;;;;;;;13.75;10.13;;;;;;;5.21;100.00;102293.31;5247667;28;20035;-65
2022/11/13 04:25:37;;;;;;;11.77;9.07;;;;;;;5.30;100.00;102287.72;5248437;28;20028;-65
2022/11/13 04:28:09;;;;;;;10.88;8.43;;;;;;;5.27;100.00;102283.41;5247627;28;20039;-65
2022/11/13 04:30:41;;;;;;;13.25;9.60;;;;;;;5.29;100.00;102280.69;5242672;28;20035;-65
2022/11/13 04:33:12;;;;;;;11.15;8.48;;;;;;;5.26;100.00;102279.03;5245784;28;20081;-65
2022/11/13 04:35:44;;;;;;;12.05;8.52;;;;;;;5.27;100.00;102283.41;5244764;28;20021;-65
2022/11/13 04:38:16;;;;;;;12.15;8.82;;;;;;;5.28;100.00;102277.19;5245998;28;20067;-65
2022/11/13 04:42:47;;;;;;;11.93;8.40;;;;;;;5.23;100.00;102268.53;5247078;28;20437;-65
2022/11/13 04:43:41;;;;;;;12.63;9.10;;;;;;;5.22;100.00;102281.81;5246480;28;20326;-65
2022/11/13 04:46:13;;;;;;;10.57;8.68;;;;;;;5.13;100.00;102274.16;5244171;28;20090;-65
2022/11/13 04:48:44;;;;;;;10.60;8.52;;;;;;;5.16;100.00;102272.28;5243294;28;20028;-65
2022/11/13 04:51:15;;;;;;;11.48;8.73;;;;;;;5.08;100.00;102271.63;5240218;28;20101;-65
2022/11/13 04:53:46;;;;;;;13.68;8.73;;;;;;;5.16;100.00;102268.75;5245607;28;20033;-66
2022/11/13 04:56:18;;;;;;;11.73;9.05;;;;;;;5.06;100.00;102268.19;5241929;28;20053;-66
2022/11/13 04:58:50;;;;;;;13.63;9.88;;;;;;;5.04;100.00;102272.66;5247015;28;20588;-66
2022/11/13 05:01:21;;;;;;;14.15;10.45;;;;;;;5.08;100.00;102279.56;5244249;28;20029;-66
2022/11/13 05:03:52;;;;;;;13.00;10.02;;;;;;;5.08;100.00;102269.00;5245745;28;20104;-66
2022/11/13 05:06:24;;;;;;;13.88;10.20;;;;;;;5.08;100.00;102277.81;5244220;28;20040;-65
2022/11/13 05:08:55;;;;;;;13.27;9.55;;;;;;;4.99;100.00;102278.09;5246270;28;20039;-66
2022/11/13 05:11:26;;;;;;;11.68;9.07;;;;;;;5.07;100.00;102269.94;5244863;28;20180;-66
2022/11/13 05:13:58;;;;;;;12.50;9.43;;;;;;;4.96;100.00;102275.53;5246993;28;20045;-66
2022/11/13 05:16:29;;;;;;;12.98;10.02;;;;;;;4.94;100.00;102273.84;5246276;28;20165;-65
2022/11/13 05:19:05;;;;;;;12.73;9.88;;;;;;;4.89;100.00;102272.22;5244909;28;20037;-66
2022/11/13 05:21:38;;;;;;;13.82;9.15;;;;;;;4.84;100.00;102278.53;5244176;28;20028;-66
2022/11/13 05:24:10;;;;;;;14.20;9.70;;;;;;;4.80;100.00;102274.25;5245925;28;20025;-66
2022/11/13 05:26:41;;;;;;;12.43;9.48;;;;;;;4.73;100.00;102268.28;5246231;28;20028;-66
2022/11/13 05:29:13;;;;;;;11.88;9.32;;;;;;;4.70;100.00;102263.09;5246578;28;20364;-66
2022/11/13 05:31:44;;;;;;;12.45;10.50;;;;;;;4.66;100.00;102266.72;5243749;28;20029;-65
2022/11/13 05:34:17;;;;;;;12.38;8.68;;;;;;;4.71;100.00;102257.72;5242410;28;20044;-66
2022/11/13 05:36:48;;;;;;;11.68;9.23;;;;;;;4.66;100.00;102249.09;5243903;28;20032;-66
2022/11/13 05:39:19;;;;;;;12.85;9.57;;;;;;;4.65;100.00;102246.50;5247820;28;20365;-65
2022/11/13 05:41:50;;;;;;;14.75;9.48;;;;;;;4.51;100.00;102252.19;5243015;28;20039;-66
2022/11/13 05:44:22;;;;;;;11.05;9.13;;;;;;;4.50;100.00;102261.00;5244642;28;20068;-66
2022/11/13 05:46:53;;;;;;;12.85;9.52;;;;;;;4.47;100.00;102258.47;5244812;28;20032;-65
2022/11/13 05:49:24;;;;;;;14.13;9.82;;;;;;;4.52;100.00;102261.81;5245907;28;20029;-65
2022/11/13 05:51:55;;;;;;;13.57;9.30;;;;;;;4.47;100.00;102266.41;5243622;28;20130;-66
2022/11/13 05:54:27;;;;;;;13.13;9.13;;;;;;;4.38;100.00;102264.84;5246477;28;20147;-66
2022/11/13 05:56:59;;;;;;;12.85;8.82;;;;;;;4.42;100.00;102261.22;5245891;28;20045;-66
2022/11/13 05:59:30;;;;;;;13.40;9.50;;;;;;;4.32;100.00;102259.75;5243686;28;20509;-65
2022/11/13 06:02:01;;;;;;;12.85;9.95;;;;;;;4.26;100.00;102258.16;5245365;28;20098;-66
2022/11/13 06:04:33;;;;;;;13.73;9.55;;;;;;;4.27;100.00;102259.00;5244959;28;20403;-66
2022/11/13 06:07:04;;;;;;;12.00;9.85;;;;;;;4.19;100.00;102261.84;5244518;28;20044;-66
2022/11/13 06:09:35;;;;;;;11.25;9.18;;;;;;;4.18;100.00;102256.59;5246917;28;20052;-65
2022/11/13 06:12:07;;;;;;;11.63;8.85;;;;;;;4.20;100.00;102250.38;5244346;28;20029;-65
2022/11/13 06:14:38;;;;;;;14.95;10.15;;;;;;;4.16;100.00;102246.09;5243840;28;20171;-65
2022/11/13 06:17:09;;;;;;;13.40;9.70;;;;;;;4.11;100.00;102238.28;5243033;28;20044;-66
2022/11/13 06:19:40;;;;;;;12.10;9.02;;;;;;;4.18;100.00;102239.00;5245163;28;20036;-65
2022/11/13 06:22:12;;;;;;;12.07;9.73;;;;;;;4.12;100.00;102236.50;5245824;28;20033;-65
2022/11/13 06:24:43;;;;;;;13.02;9.70;;;;;;;4.05;100.00;102234.97;5244741;28;20138;-65
2022/11/13 06:27:14;;;;;;;12.15;9.15;;;;;;;4.13;100.00;102230.31;5244138;28;20037;-66
2022/11/13 06:29:46;;;;;;;13.73;9.07;;;;;;;4.08;100.00;102227.78;5246463;28;20025;-65
2022/11/13 06:32:17;;;;;;;16.17;9.65;;;;;;;4.08;100.00;102234.84;5241022;28;20068;-66
2022/11/13 06:34:48;;;;;;;14.02;10.35;;;;;;;4.04;100.00;102236.72;5244537;28;20279;-66
2022/11/13 06:37:19;;;;;;;12.10;8.77;;;;;;;3.98;100.00;102225.47;5245223;28;20033;-65
2022/11/13 06:39:51;;;;;;;12.05;9.38;;;;;;;3.99;100.00;102225.44;5244635;28;20566;-65
2022/11/13 06:42:22;;;;;;;12.73;9.43;;;;;;;3.95;100.00;102215.84;5247124;28;20021;-66
2022/11/13 06:44:53;;;;;;;12.82;9.57;;;;;;;3.96;100.00;102209.66;5247016;28;20060;-66
2022/11/13 06:47:24;;;;;;;12.60;9.32;;;;;;;3.87;100.00;102217.81;5245605;28;20102;-66
2022/11/13 06:49:56;;;;;;;12.32;9.57;;;;;;;3.84;100.00;102212.63;5250069;28;20411;-65
2022/11/13 06:52:27;;;;;;;12.10;8.98;;;;;;;3.85;100.00;102219.63;5246350;28;20608;-65
2022/11/13 06:55:00;;;;;;;12.18;9.30;;;;;;;3.81;100.00;102215.34;5248514;28;20085;-66
2022/11/13 06:57:31;;;;;;;14.80;10.57;;;;;;;3.88;100.00;102216.91;5244791;28;20067;-65
2022/11/13 07:00:04;;;;;;;15.07;9.82;;;;;;;3.84;100.00;102213.50;5247087;28;20017;-66
2022/11/13 07:02:35;;;;;;;14.45;9.80;;;;;;;3.86;100.00;102216.94;5247571;28;20025;-66
2022/11/13 07:05:07;;;;;;;13.57;10.13;;;;;;;3.85;100.00;102207.28;5246637;28;20048;-65
2022/11/13 07:07:38;;;;;;;14.60;10.10;;;;;;;3.95;100.00;102217.59;5247161;28;20131;-65
2022/11/13 07:10:09;;;;;;;15.60;10.50;;;;;;;3.93;100.00;102220.28;5246254;28;20406;-66
2022/11/13 07:12:41;;;;;;;17.75;11.32;;;;;;;3.96;100.00;102214.06;5244653;28;20571;-65
2022/11/13 07:15:12;;;;;;;17.67;10.93;;;;;;;3.93;100.00;102217.63;5246973;28;20155;-65
2022/11/13 07:17:44;;;;;;;14.27;10.55;;;;;;;3.87;100.00;102213.41;5249524;28;20060;-65
2022/11/13 07:20:15;;;;;;;13.73;10.15;;;;;;;3.91;100.00;102217.72;5247346;28;20052;-65
2022/11/13 07:22:46;;;;;;;14.73;10.32;;;;;;;3.87;100.00;102207.25;5245938;28;20199;-65
2022/11/13 07:25:18;;;;;;;13.93;10.35;;;;;;;3.99;100.00;102206.94;5246138;28;20083;-65
2022/11/13 07:27:49;;;;;;;13.65;9.85;;;;;;;3.93;100.00;102200.03;5249591;28;20040;-65
2022/11/13 07:30:21;;;;;;;13.77;10.40;;;;;;;3.86;100.00;102206.38;5243485;28;20031;-66
2022/11/13 07:32:52;;;;;;;13.77;9.80;;;;;;;3.96;100.00;102200.88;5246596;28;20489;-66
2022/11/13 07:35:23;;;;;;;14.95;11.18;;;;;;;3.95;100.00;102199.13;5247067;28;20063;-65
2022/11/13 07:37:55;;;;;;;13.70;10.43;;;;;;;3.87;100.00;102207.25;5247385;28;20134;-65
2022/11/13 07:40:26;;;;;;;15.32;11.00;;;;;;;3.82;100.00;102194.19;5240370;28;20159;-65
2022/11/13 07:42:59;;;;;;;15.55;11.68;;;;;;;3.86;100.00;102206.38;5244915;28;20467;-66
2022/11/13 07:45:31;;;;;;;16.08;11.20;;;;;;;3.91;100.00;102209.78;5245913;28;20123;-65
2022/11/13 07:48:03;;;;;;;13.65;11.20;;;;;;;3.88;100.00;102199.28;5244598;28;20070;-65
2022/11/13 07:50:37;;;;;;;16.67;11.80;;;;;;;3.84;100.00;102200.28;5244810;28;20517;-65
2022/11/13 07:53:09;;;;;;;16.90;11.27;;;;;;;3.88;100.00;102195.78;5244979;28;20032;-65
2022/11/13 07:55:40;;;;;;;19.00;11.95;;;;;;;3.82;100.00;102198.59;5245029;28;20502;-65
2022/11/13 07:58:12;;;;;;;14.68;11.45;;;;;;;3.89;100.00;102200.16;5244797;28;20036;-65
2022/11/13 08:00:44;;;;;;;15.18;11.75;;;;;;;3.80;100.00;102201.28;5246729;28;20037;-66
2022/11/13 08:03:16;;;;;;;17.27;12.38;;;;;;;3.82;100.00;102201.25;5248744;28;20521;-66
2022/11/13 08:05:47;;;;;;;15.00;11.00;;;;;;;3.84;100.00;102199.44;5244923;28;20025;-64
2022/11/13 08:08:19;;;;;;;16.52;11.75;;;;;;;3.81;100.00;102200.34;5247399;28;20501;-64
2022/11/13 08:10:50;;;;;;;19.83;11.75;;;;;;;3.80;100.00;102198.63;5243979;28;20410;-64
2022/11/13 08:13:22;;;;;;;17.92;11.90;;;;;;;3.83;100.00;102190.63;5246362;28;20458;-66
2022/11/13 08:15:58;;;;;;;15.90;12.27;;;;;;;3.91;100.00;102195.69;5246895;28;20112;-66
2022/11/13 08:18:30;;;;;;;16.83;11.77;;;;;;;3.89;100.00;102192.22;5251426;28;20465;-65
2022/11/13 08:21:04;;;;;;;16.70;12.82;;;;;;;4.02;100.00;102190.13;5246911;28;20375;-65
2022/11/13 08:23:35;;;;;;;16.48;12.32;;;;;;;3.96;100.00;102190.31;5247412;28;20033;-65
2022/11/13 08:26:07;;;;;;;16.75;12.38;;;;;;;3.98;100.00;102193.78;5244696;28;20032;-65
2022/11/13 08:28:39;;;;;;;17.10;12.93;;;;;;;4.01;100.00;102184.00;5249819;28;20056;-65
2022/11/13 08:31:12;;;;;;;15.98;12.50;;;;;;;4.05;100.00;102185.63;5245913;28;20178;-65
2022/11/13 08:33:43;;;;;;;16.50;12.43;;;;;;;4.11;100.00;102189.88;5246032;28;20036;-65
2022/11/13 08:36:15;;;;;;;17.85;13.38;;;;;;;4.04;100.00;102181.25;5245065;28;20502;-65
2022/11/13 08:38:47;;;;;;;17.45;13.05;;;;;;;4.12;100.00;102181.03;5246768;28;20024;-66
2022/11/13 08:41:18;;;;;;;17.17;12.77;;;;;;;4.06;100.00;102176.78;5241896;28;20044;-65
2022/11/13 08:43:50;;;;;;;15.95;12.85;;;;;;;4.17;100.00;102175.66;5246166;28;20080;-66
2022/11/13 08:46:21;;;;;;;15.85;12.77;;;;;;;4.19;100.00;102171.19;5246169;28;20024;-65
2022/11/13 08:48:52;;;;;;;17.20;12.65;;;;;;;4.23;100.00;102178.97;5250406;28;20024;-65
2022/11/13 08:51:23;;;;;;;17.90;13.57;;;;;;;4.31;100.00;102174.34;5250205;28;20036;-66
2022/11/13 08:53:55;;;;;;;20.73;13.57;;;;;;;4.38;100.00;102171.53;5250689;28;20604;-66
2022/11/13 08:56:26;;;;;;;18.38;14.35;;;;;;;4.42;100.00;102176.66;5248539;28;20411;-65
2022/11/13 08:58:57;;;;;;;17.92;13.60;;;;;;;4.35;100.00;102174.25;5250554;28;20612;-66
2022/11/13 09:01:28;;;;;;;16.80;13.25;;;;;;;4.38;100.00;102166.22;5251297;28;20120;-66
2022/11/13 09:04:01;;;;;;;15.27;12.52;;;;;;;4.54;100.00;102172.78;5250749;28;20059;-65
2022/11/13 09:06:33;;;;;;;17.95;13.60;;;;;;;4.50;100.00;102165.84;5240280;28;20039;-66
2022/11/13 09:09:05;;;;;;;16.60;13.32;;;;;;;4.60;100.00;102166.44;5233233;28;20028;-65
2022/11/13 09:11:37;;;;;;;17.05;13.90;;;;;;;4.67;100.00;102165.34;5248495;28;20410;-65
2022/11/13 09:14:08;;;;;;;15.93;13.35;;;;;;;4.78;100.00;102171.19;5253143;28;20033;-66
2022/11/13 09:16:40;;;;;;;15.90;12.75;;;;;;;4.78;100.00;102163.25;5251705;28;20067;-65
2022/11/13 09:19:11;;;;;;;15.68;11.95;;;;;;;4.99;100.00;102156.41;5229524;28;20033;-66
2022/11/13 09:21:42;;;;;;;15.35;13.07;;;;;;;5.02;100.00;102158.94;5250246;28;20021;-65
2022/11/13 09:24:14;;;;;;;16.95;12.48;;;;;;;4.94;100.00;102160.13;5255674;28;20107;-66
2022/11/13 09:26:45;;;;;;;19.02;12.75;;;;;;;4.97;100.00;102149.47;5250866;28;20458;-66
2022/11/13 09:29:17;;;;;;;17.50;12.50;;;;;;;5.08;100.00;102156.13;5252691;28;20460;-66
2022/11/13 09:31:49;;;;;;;15.48;12.70;;;;;;;5.14;100.00;102152.41;5245046;28;20032;-65
2022/11/13 09:34:21;;;;;;;16.45;12.30;;;;;;;5.17;100.00;102146.16;5251215;28;20116;-65
2022/11/13 09:36:53;;;;;;;16.30;11.88;;;;;;;5.28;100.00;102154.59;5252423;28;20031;-66
2022/11/13 09:39:24;;;;;;;15.68;11.63;;;;;;;5.45;100.00;102159.34;5249673;28;20025;-65
2022/11/13 09:42:15;;;;;;;13.70;11.30;;;;;;;5.50;100.00;102158.28;5248078;28;20036;-65
2022/11/13 09:44:51;;;;;;;13.43;10.30;;;;;;;5.74;100.00;102155.69;5246666;28;20025;-66
2022/11/13 09:47:45;;;;;;;15.07;11.00;;;;;;;5.76;100.00;102158.28;5246869;28;20436;-66
2022/11/13 09:50:23;;;;;;;14.02;10.50;;;;;;;5.90;100.00;102146.25;5246874;28;20529;-66
2022/11/13 09:52:55;;;;;;;13.05;10.55;;;;;;;5.84;100.00;102153.56;5246439;28;20051;-66
2022/11/13 09:55:33;;;;;;;14.63;10.00;;;;;;;6.15;100.00;102148.03;5245196;28;20434;-66
2022/11/13 09:58:22;;;;;;;12.80;10.07;;;;;;;5.97;100.00;102159.34;5251045;28;20025;-66
2022/11/13 10:00:55;;;;;;;13.20;10.05;;;;;;;6.21;100.00;102147.84;5248332;28;20051;-67
2022/11/13 10:03:38;;;;;;;14.68;10.27;;;;;;;6.21;100.00;102144.31;5249360;28;20064;-66
2022/11/13 10:06:38;;;;;;;13.25;10.27;;;;;;;6.27;100.00;102144.94;5241186;28;20029;-66
2022/11/13 10:09:23;;;;;;;13.73;9.70;;;;;;;6.30;100.00;102149.25;5237034;28;20065;-66
2022/11/13 10:12:03;;;;;;;11.65;9.43;;;;;;;6.35;100.00;102139.34;5229961;28;20036;-66
2022/11/13 10:14:41;;;;;;;12.38;9.30;;;;;;;6.36;100.00;102146.38;5247467;28;20033;-66
2022/11/13 10:17:23;;;;;;;12.90;9.48;;;;;;;6.54;100.00;102147.47;5249839;28;20395;-66
2022/11/13 10:20:20;;;;;;;13.93;8.90;;;;;;;6.58;100.00;102146.44;5256090;28;20033;-66
2022/11/13 10:23:01;;;;;;;11.70;8.90;;;;;;;6.70;100.00;102138.94;5252801;28;20017;-67
2022/11/13 10:25:35;;;;;;;11.90;9.02;;;;;;;6.65;100.00;102131.13;5253083;28;20025;-67
2022/11/13 10:28:22;;;;;;;10.52;8.10;;;;;;;6.91;100.00;102132.75;5255798;28;20098;-66
2022/11/13 10:30:54;;;;;;;10.85;8.65;;;;;;;6.84;100.00;102126.81;5249844;28;20033;-66
2022/11/13 10:33:25;;;;;;;10.18;8.02;;;;;;;7.11;100.00;102128.41;5250989;28;20035;-66
2022/11/13 10:36:19;;;;;;;13.80;8.50;;;;;;;7.23;100.00;102117.31;5250255;28;20391;-66
2022/11/13 10:39:08;;;;;;;10.75;8.32;;;;;;;7.16;100.00;102121.13;5246818;28;20041;-66
2022/11/13 10:41:51;;;;;;;11.00;8.27;;;;;;;7.21;100.00;102111.16;5249670;28;20025;-66
2022/11/13 10:44:27;;;;;;;9.82;7.50;;;;;;;7.40;100.00;102108.59;5252288;28;20079;-66
2022/11/13 10:47:15;;;;;;;10.50;8.60;;;;;;;7.46;100.00;102111.03;5252115;28;20041;-66
2022/11/13 10:49:46;;;;;;;10.18;7.68;;;;;;;7.56;100.00;102111.47;5248474;28;20033;-66
2022/11/13 10:52:27;;;;;;;12.45;8.27;;;;;;;7.65;100.00;102105.75;5251815;28;20432;-66
2022/11/13 10:55:19;;;;;;;10.57;7.50;;;;;;;7.79;100.00;102086.56;5249398;28;20131;-66
2022/11/13 10:57:58;;;;;;;10.82;7.95;;;;;;;7.71;100.00;102092.22;5250576;28;20059;-67
2022/11/13 11:00:35;;;;;;;9.25;7.50;;;;;;;7.88;100.00;102083.50;5251204;28;20036;-66
2022/11/13 11:03:14;;;;;;;10.77;7.30;;;;;;;8.09;100.00;102083.41;5253586;28;20027;-66
2022/11/13 11:05:59;;;;;;;12.65;7.72;;;;;;;8.09;100.00;102075.44;5250629;28;20379;-66
2022/11/13 11:08:32;;;;;;;;;;;;;;;7.98;100.00;102065.34;5250789;28;20538;-66
2022/11/13 11:14:20;;;;;;;9.40;7.30;;;;;;;8.16;100.00;102072.44;5249357;28;20036;-66
2022/11/13 11:16:52;;;;;;;9.70;7.28;;;;;;;8.19;100.00;102072.31;5246148;28;20033;-66
2022/11/13 11:19:27;;;;;;;8.95;6.80;;;;;;;8.20;100.00;102073.16;5251114;28;20033;-67
2022/11/13 11:22:23;;;;;;;9.88;7.22;;;;;;;8.31;100.00;102070.00;5250364;28;20121;-67
2022/11/13 11:25:10;;;;;;;9.75;7.00;;;;;;;8.36;100.00;102075.94;5253718;28;20052;-67
2022/11/13 11:27:48;;;;;;;9.98;7.60;;;;;;;8.47;100.00;102067.50;5251754;28;20036;-67
2022/11/13 11:30:25;;;;;;;9.95;7.65;;;;;;;8.60;100.00;102061.50;5254549;28;20117;-66
2022/11/13 11:33:11;;;;;;;10.55;7.97;;;;;;;8.63;100.00;102063.19;5254076;28;20036;-67
2022/11/13 11:35:51;;;;;;;9.43;7.70;;;;;;;8.91;100.00;102052.00;5251959;28;20536;-68
2022/11/13 11:38:40;;;;;;;10.07;8.35;;;;;;;8.86;100.00;102061.16;5250304;28;20394;-67
2022/11/13 11:41:14;;;;;;;9.55;7.30;;;;;;;8.86;100.00;102053.16;5251270;28;20033;-66
2022/11/13 11:44:05;;;;;;;9.65;7.65;;;;;;;8.95;100.00;102045.59;5249413;28;20063;-67
2022/11/13 11:46:36;;;;;;;10.18;7.68;;;;;;;9.16;100.00;102048.97;5251567;28;20035;-67